Aviation Digital Data Service (ADDS)

Output produced by METARs form (2306 UTC 02 March 2015)
found at http://aviationweather.gov/adds/metars/
 
KPQI 021751Z 0218/0318 29011G21KT 4SM -SN SCT025 OVC040 
     FM022100 30015G25KT 2SM -SN OVC025 
     FM030100 30020G30KT 4SM -SN BLSN SCT020 OVC030 
     FM030300 31015G25KT P6SM SCT100 
     FM031100 32012KT P6SM SKC AMD LTD TO CLD VIS AND WIND